Time;durP1;ratioP1;P1;durP2;ratioP2;P2;SDS_P1;SDS_P2;PMS_P1;PMS_P2;Temp;Humidity;BMP_temperature;BMP_pressure;BME280_temperature;BME280_humidity;BME280_pressure;Samples;Min_cycle;Max_cycle;Signal;HPM_P1;HPM_P2
2023/09/13 00:00:14;;;;;;;;;;;20.10;92.20;;;;;;5018755;28;19940;-89
2023/09/13 00:02:42;;;;;;;;;;;20.10;92.40;;;;;;5019488;28;19967;-88
2023/09/13 00:05:09;;;;;;;;;;;20.20;92.40;;;;;;5034651;28;19948;-88
2023/09/13 00:07:37;;;;;;;;;;;20.20;92.00;;;;;;5023715;28;19966;-89
2023/09/13 00:10:03;;;;;;;;;;;20.10;92.10;;;;;;5024778;28;19933;-89
2023/09/13 00:12:29;;;;;;;;;;;20.10;92.10;;;;;;5037574;28;20259;-89
2023/09/13 00:14:54;;;;;;;;;;;20.00;92.00;;;;;;5024493;28;19919;-89
2023/09/13 00:17:21;;;;;;;;;;;20.00;91.40;;;;;;5048403;28;19990;-87
2023/09/13 00:19:46;;;;;;;;;;;20.00;91.40;;;;;;5018990;28;20412;-88
2023/09/13 00:22:12;;;;;;;;;;;19.90;91.50;;;;;;5039901;28;19925;-88
2023/09/13 00:24:38;;;;;;;;;;;19.90;91.50;;;;;;5016748;28;19917;-88
2023/09/13 00:27:03;;;;;;;;;;;19.80;91.30;;;;;;5034345;28;19913;-88
2023/09/13 00:29:32;;;;;;;;;;;19.80;91.50;;;;;;5010173;28;20374;-89
2023/09/13 00:31:58;;;;;;;;;;;19.70;90.90;;;;;;5038712;28;19913;-88
2023/09/13 00:34:23;;;;;;;;;;;19.80;90.80;;;;;;5022025;28;20257;-88
2023/09/13 00:36:49;;;;;;;;;;;19.60;90.90;;;;;;5012166;28;19988;-89
2023/09/13 00:39:14;;;;;;;;;;;19.70;90.80;;;;;;5008479;28;19917;-88
2023/09/13 00:41:39;;;;;;;;;;;19.70;90.70;;;;;;5016767;28;20020;-89
2023/09/13 00:44:05;;;;;;;;;;;19.60;90.90;;;;;;5012612;28;20302;-89
2023/09/13 00:46:30;;;;;;;;;;;19.60;91.40;;;;;;5013058;28;20366;-89
2023/09/13 00:48:56;;;;;;;;;;;19.60;90.90;;;;;;5017660;28;20398;-89
2023/09/13 00:51:22;;;;;;;;;;;19.60;90.90;;;;;;5024961;28;19932;-88
2023/09/13 00:53:47;;;;;;;;;;;19.50;91.20;;;;;;5024148;28;19913;-89
2023/09/13 00:56:14;;;;;;;;;;;19.50;91.20;;;;;;5029320;28;19982;-89
2023/09/13 00:58:39;;;;;;;;;;;19.60;90.80;;;;;;5013547;28;19959;-88
2023/09/13 01:01:06;;;;;;;;;;;19.50;91.20;;;;;;5017289;28;19912;-88
2023/09/13 01:03:32;;;;;;;;;;;19.50;91.20;;;;;;5023136;28;19923;-88
2023/09/13 01:05:58;;;;;;;;;;;19.50;91.20;;;;;;5029385;28;19913;-89
2023/09/13 01:08:24;;;;;;;;;;;19.50;90.90;;;;;;5018468;28;19923;-88
2023/09/13 01:10:49;;;;;;;;;;;19.50;91.40;;;;;;5037747;28;19909;-88
2023/09/13 01:13:15;;;;;;;;;;;19.50;91.50;;;;;;5021538;28;20378;-88
2023/09/13 01:15:49;;;;;;;;;;;19.60;91.30;;;;;;5048550;28;19912;-88
2023/09/13 01:18:23;;;;;;;;;;;19.60;91.50;;;;;;5042385;28;19924;-89
2023/09/13 01:20:48;;;;;;;;;;;19.70;91.50;;;;;;5042904;28;19940;-89
2023/09/13 01:23:33;;;;;;;;;;;19.70;91.70;;;;;;5036036;28;19987;-88
2023/09/13 01:26:01;;;;;;;;;;;19.70;91.70;;;;;;5037346;28;19909;-88
2023/09/13 01:28:39;;;;;;;;;;;19.80;91.70;;;;;;5021466;28;19967;-88
2023/09/13 01:31:05;;;;;;;;;;;19.80;91.60;;;;;;5037227;28;19936;-88
2023/09/13 01:33:30;;;;;;;;;;;19.70;91.70;;;;;;5049297;28;19921;-88
2023/09/13 01:35:56;;;;;;;;;;;19.70;91.80;;;;;;5047673;28;19908;-90
2023/09/13 01:38:21;;;;;;;;;;;19.70;92.00;;;;;;5033599;28;19917;-89
2023/09/13 01:40:48;;;;;;;;;;;19.70;91.80;;;;;;5018294;28;19966;-89
2023/09/13 01:43:28;;;;;;;;;;;19.80;92.10;;;;;;5043334;28;19956;-90
2023/09/13 01:45:54;;;;;;;;;;;19.70;92.10;;;;;;5043823;28;19966;-88
2023/09/13 01:48:20;;;;;;;;;;;19.80;92.00;;;;;;5044660;28;19920;-88
2023/09/13 01:50:46;;;;;;;;;;;19.80;92.10;;;;;;5014972;28;19921;-89
2023/09/13 01:53:12;;;;;;;;;;;19.80;92.30;;;;;;5028972;28;19924;-89
2023/09/13 01:55:37;;;;;;;;;;;19.70;92.20;;;;;;5027716;28;19921;-89
2023/09/13 01:58:03;;;;;;;;;;;19.80;92.40;;;;;;5027035;28;19936;-88
2023/09/13 02:00:28;;;;;;;;;;;19.80;92.30;;;;;;5021278;28;19991;-88
2023/09/13 02:02:53;;;;;;;;;;;19.90;92.20;;;;;;5041449;28;19944;-89
2023/09/13 02:05:19;;;;;;;;;;;20.00;92.50;;;;;;5024363;28;19921;-87
2023/09/13 02:07:44;;;;;;;;;;;20.00;92.20;;;;;;5041746;28;19913;-88
2023/09/13 02:10:10;;;;;;;;;;;20.10;92.10;;;;;;5037322;28;19963;-89
2023/09/13 02:12:35;;;;;;;;;;;20.00;92.20;;;;;;5025306;28;20317;-88
2023/09/13 02:15:01;;;;;;;;;;;20.00;92.00;;;;;;5026986;28;19913;-89
2023/09/13 02:17:26;;;;;;;;;;;20.10;92.10;;;;;;5013626;28;19921;-88
2023/09/13 02:19:51;;;;;;;;;;;20.10;92.00;;;;;;5042278;28;20512;-89
2023/09/13 02:22:17;;;;;;;;;;;20.00;91.70;;;;;;5028888;28;20375;-89
2023/09/13 02:24:42;;;;;;;;;;;20.00;91.80;;;;;;5023545;28;19913;-89
2023/09/13 02:27:08;;;;;;;;;;;19.90;91.10;;;;;;5021916;28;19970;-88
2023/09/13 02:29:33;;;;;;;;;;;19.70;91.50;;;;;;5027039;28;20396;-88
2023/09/13 02:31:59;;;;;;;;;;;19.70;91.80;;;;;;5021894;28;20463;-89
2023/09/13 02:34:24;;;;;;;;;;;19.60;91.50;;;;;;5023630;28;19920;-88
2023/09/13 02:36:50;;;;;;;;;;;19.50;91.30;;;;;;5010788;28;19913;-88
2023/09/13 02:39:34;;;;;;;;;;;19.50;91.30;;;;;;5025784;28;19939;-89
2023/09/13 02:42:00;;;;;;;;;;;19.40;91.50;;;;;;5022424;28;19917;-88
2023/09/13 02:44:26;;;;;;;;;;;19.40;91.80;;;;;;5035878;28;19913;-88
2023/09/13 02:46:51;;;;;;;;;;;19.40;91.80;;;;;;5032900;28;19952;-88
2023/09/13 02:49:17;;;;;;;;;;;19.40;91.80;;;;;;5020024;28;19960;-89
2023/09/13 02:51:42;;;;;;;;;;;19.30;91.80;;;;;;5014711;28;20334;-88
2023/09/13 02:54:08;;;;;;;;;;;19.40;92.10;;;;;;5047480;28;20578;-88
2023/09/13 02:56:33;;;;;;;;;;;19.50;92.10;;;;;;5037734;28;20289;-88
2023/09/13 02:58:58;;;;;;;;;;;19.40;92.10;;;;;;5024551;28;20017;-88
2023/09/13 03:01:24;;;;;;;;;;;19.30;92.50;;;;;;5028082;28;19923;-88
2023/09/13 03:03:49;;;;;;;;;;;19.30;92.50;;;;;;5022738;28;19916;-88
2023/09/13 03:06:18;;;;;;;;;;;19.30;92.50;;;;;;5025308;28;20011;-88
2023/09/13 03:08:43;;;;;;;;;;;19.40;92.10;;;;;;5020433;28;19917;-88
2023/09/13 03:11:09;;;;;;;;;;;19.40;92.10;;;;;;5033162;28;19936;-88
2023/09/13 03:13:35;;;;;;;;;;;19.50;92.20;;;;;;5033303;28;19917;-88
2023/09/13 03:16:00;;;;;;;;;;;19.50;91.70;;;;;;5014780;28;19972;-88
2023/09/13 03:18:26;;;;;;;;;;;19.50;91.90;;;;;;5022329;28;19925;-89
2023/09/13 03:20:51;;;;;;;;;;;19.60;91.60;;;;;;5016380;28;20072;-88
2023/09/13 03:23:17;;;;;;;;;;;19.60;91.80;;;;;;5047254;28;19921;-88
2023/09/13 03:25:42;;;;;;;;;;;19.60;91.60;;;;;;5039199;28;20007;-88
2023/09/13 03:28:07;;;;;;;;;;;19.70;91.50;;;;;;5042524;28;19955;-88
2023/09/13 03:30:34;;;;;;;;;;;19.70;91.50;;;;;;5032907;28;19952;-88
2023/09/13 03:32:59;;;;;;;;;;;19.70;91.40;;;;;;5041904;28;20011;-88
2023/09/13 03:35:25;;;;;;;;;;;19.80;91.40;;;;;;5012312;28;19949;-88
2023/09/13 03:37:50;;;;;;;;;;;19.80;91.00;;;;;;5021734;28;19915;-88
2023/09/13 03:40:16;;;;;;;;;;;19.70;91.70;;;;;;5013853;28;19978;-88
2023/09/13 03:42:41;;;;;;;;;;;19.70;91.70;;;;;;5015094;28;19913;-88
2023/09/13 03:45:07;;;;;;;;;;;19.70;91.60;;;;;;5046569;28;19913;-89
2023/09/13 03:47:32;;;;;;;;;;;19.70;91.60;;;;;;5028010;28;19917;-88
2023/09/13 03:49:58;;;;;;;;;;;19.60;91.70;;;;;;5046411;28;19936;-88
2023/09/13 03:52:23;;;;;;;;;;;19.60;91.80;;;;;;5021094;28;19962;-88
2023/09/13 03:54:49;;;;;;;;;;;19.70;91.50;;;;;;5020868;28;20302;-87
2023/09/13 03:57:14;;;;;;;;;;;19.80;91.30;;;;;;5018161;28;20425;-87
2023/09/13 03:59:40;;;;;;;;;;;19.70;91.40;;;;;;5016153;28;19920;-88
2023/09/13 04:02:05;;;;;;;;;;;19.60;91.60;;;;;;5032396;28;19923;-87
2023/09/13 04:04:31;;;;;;;;;;;19.60;92.10;;;;;;5038598;28;20363;-87
2023/09/13 04:06:56;;;;;;;;;;;19.60;92.20;;;;;;5015658;28;19913;-89
2023/09/13 04:09:22;;;;;;;;;;;19.60;92.40;;;;;;5015708;28;20382;-90
2023/09/13 04:11:48;;;;;;;;;;;19.50;92.20;;;;;;5031140;28;19959;-88
2023/09/13 04:14:13;;;;;;;;;;;19.50;92.40;;;;;;5033755;28;19921;-87
2023/09/13 04:16:39;;;;;;;;;;;19.50;92.20;;;;;;5027420;28;19924;-87
2023/09/13 04:19:04;;;;;;;;;;;19.50;92.40;;;;;;5021043;28;19913;-88
2023/09/13 04:21:29;;;;;;;;;;;19.50;92.40;;;;;;5015504;28;19921;-87
2023/09/13 04:23:58;;;;;;;;;;;19.60;92.40;;;;;;5039503;28;19913;-87
2023/09/13 04:26:24;;;;;;;;;;;19.60;92.10;;;;;;5030693;28;19921;-87
2023/09/13 04:28:49;;;;;;;;;;;19.60;92.20;;;;;;5027491;28;19916;-87
2023/09/13 04:31:15;;;;;;;;;;;19.60;92.20;;;;;;5041788;28;19925;-87
2023/09/13 04:33:47;;;;;;;;;;;19.60;92.20;;;;;;5019634;28;20374;-87
2023/09/13 04:36:13;;;;;;;;;;;19.60;92.30;;;;;;5038725;28;19927;-87
2023/09/13 04:38:38;;;;;;;;;;;19.60;92.40;;;;;;5025069;28;19917;-87
2023/09/13 04:41:05;;;;;;;;;;;19.60;92.20;;;;;;5030614;28;20318;-88
2023/09/13 04:43:30;;;;;;;;;;;19.60;92.20;;;;;;5018559;28;20376;-87
2023/09/13 04:45:56;;;;;;;;;;;19.60;92.20;;;;;;5028264;28;19971;-87
2023/09/13 04:48:21;;;;;;;;;;;19.80;92.00;;;;;;5024155;28;19913;-87
2023/09/13 04:50:47;;;;;;;;;;;19.60;91.90;;;;;;5036336;28;19929;-88
2023/09/13 04:53:12;;;;;;;;;;;19.70;92.00;;;;;;5024074;28;19986;-87
2023/09/13 04:55:37;;;;;;;;;;;19.70;91.80;;;;;;5039627;28;19920;-87
2023/09/13 04:58:03;;;;;;;;;;;19.70;91.70;;;;;;5017218;28;20342;-85
2023/09/13 05:00:32;;;;;;;;;;;19.80;91.60;;;;;;5033313;28;19917;-91
2023/09/13 05:02:57;;;;;;;;;;;19.70;91.70;;;;;;5015179;28;20526;-89
2023/09/13 05:05:23;;;;;;;;;;;19.70;91.90;;;;;;5022515;28;19923;-88
2023/09/13 05:07:48;;;;;;;;;;;19.70;92.00;;;;;;5013799;28;19999;-88
2023/09/13 05:10:13;;;;;;;;;;;19.70;92.10;;;;;;5022745;28;20293;-88
2023/09/13 05:12:39;;;;;;;;;;;19.60;91.80;;;;;;5035037;28;20370;-88
2023/09/13 05:15:05;;;;;;;;;;;19.60;91.90;;;;;;5035638;28;19913;-89
2023/09/13 05:17:30;;;;;;;;;;;19.60;92.00;;;;;;5025646;28;19913;-88
2023/09/13 05:19:56;;;;;;;;;;;19.60;91.90;;;;;;5041415;28;19920;-88
2023/09/13 05:22:21;;;;;;;;;;;19.70;91.70;;;;;;5019078;28;20432;-88
2023/09/13 05:24:47;;;;;;;;;;;19.60;91.70;;;;;;5020691;28;20004;-90
2023/09/13 05:27:12;;;;;;;;;;;19.70;91.70;;;;;;5021791;28;19921;-88
2023/09/13 05:29:37;;;;;;;;;;;19.60;91.40;;;;;;5021539;28;20004;-90
2023/09/13 05:32:03;;;;;;;;;;;19.50;91.60;;;;;;5008016;28;19932;-89
2023/09/13 05:34:29;;;;;;;;;;;19.50;91.70;;;;;;5042912;28;19918;-93
2023/09/13 05:36:55;;;;;;;;;;;19.50;91.50;;;;;;5015039;28;19947;-89
2023/09/13 05:39:20;;;;;;;;;;;19.50;91.60;;;;;;5016280;28;19917;-90
2023/09/13 05:41:46;;;;;;;;;;;19.50;91.40;;;;;;5031400;28;19917;-88
2023/09/13 05:44:17;;;;;;;;;;;19.40;91.70;;;;;;5019707;28;19913;-88
2023/09/13 05:46:42;;;;;;;;;;;19.50;91.40;;;;;;5017119;28;19924;-88
2023/09/13 05:49:08;;;;;;;;;;;19.50;91.50;;;;;;5025460;28;19912;-88
2023/09/13 05:51:33;;;;;;;;;;;19.50;91.50;;;;;;5037616;28;19919;-89
2023/09/13 05:53:59;;;;;;;;;;;19.50;91.60;;;;;;5014170;28;19917;-89
2023/09/13 05:56:24;;;;;;;;;;;19.50;91.60;;;;;;5010198;28;20004;-88
2023/09/13 05:58:50;;;;;;;;;;;19.50;91.40;;;;;;5022320;28;19913;-89
2023/09/13 06:01:15;;;;;;;;;;;19.50;91.50;;;;;;5014832;28;20357;-89
2023/09/13 06:03:40;;;;;;;;;;;19.50;91.50;;;;;;5036330;28;19913;-88
2023/09/13 06:06:06;;;;;;;;;;;19.50;91.80;;;;;;5020292;28;19917;-88
2023/09/13 06:08:31;;;;;;;;;;;19.40;91.60;;;;;;5010148;28;20333;-90
2023/09/13 06:10:57;;;;;;;;;;;19.40;91.50;;;;;;5019202;28;19962;-89
2023/09/13 06:13:22;;;;;;;;;;;19.40;91.70;;;;;;5014145;28;19917;-89
2023/09/13 06:15:48;;;;;;;;;;;19.50;90.90;;;;;;5027736;28;19913;-87
2023/09/13 06:18:13;;;;;;;;;;;19.40;91.20;;;;;;5041273;28;19917;-87
2023/09/13 06:20:39;;;;;;;;;;;19.40;91.60;;;;;;5045500;28;19947;-87
2023/09/13 06:23:04;;;;;;;;;;;19.50;91.30;;;;;;5018210;28;19959;-87
2023/09/13 06:25:30;;;;;;;;;;;19.50;91.30;;;;;;5025969;28;19967;-88
2023/09/13 06:27:59;;;;;;;;;;;19.50;90.90;;;;;;5028273;28;19936;-88
2023/09/13 06:30:26;;;;;;;;;;;19.50;90.30;;;;;;5048036;28;19917;-89
2023/09/13 06:32:53;;;;;;;;;;;19.50;90.70;;;;;;5032932;28;19912;-89
2023/09/13 06:35:19;;;;;;;;;;;19.50;90.40;;;;;;5039677;28;20000;-89
2023/09/13 06:37:44;;;;;;;;;;;19.40;90.30;;;;;;5044662;28;20621;-88
2023/09/13 06:40:10;;;;;;;;;;;19.40;90.40;;;;;;5042322;28;19921;-89
2023/09/13 06:42:36;;;;;;;;;;;19.40;90.70;;;;;;5026336;28;19916;-89
2023/09/13 06:45:02;;;;;;;;;;;19.30;91.00;;;;;;5041069;28;19951;-89
2023/09/13 06:47:30;;;;;;;;;;;19.40;91.10;;;;;;5047870;28;19916;-90
2023/09/13 06:49:55;;;;;;;;;;;19.30;90.50;;;;;;5010232;28;19925;-89
2023/09/13 06:52:21;;;;;;;;;;;19.30;90.30;;;;;;5025832;28;20007;-88
2023/09/13 06:54:46;;;;;;;;;;;19.30;90.30;;;;;;5012376;28;19967;-88
2023/09/13 06:57:12;;;;;;;;;;;19.30;90.50;;;;;;5009279;28;19921;-87
2023/09/13 06:59:38;;;;;;;;;;;19.30;90.30;;;;;;5020805;28;20000;-87
2023/09/13 07:02:03;;;;;;;;;;;19.30;90.50;;;;;;5031547;28;20310;-86
2023/09/13 07:04:30;;;;;;;;;;;19.40;90.80;;;;;;5014802;28;19932;-86
2023/09/13 07:06:55;;;;;;;;;;;19.40;89.90;;;;;;5039361;28;19952;-86
2023/09/13 07:09:21;;;;;;;;;;;19.50;90.20;;;;;;5027626;28;20535;-86
2023/09/13 07:11:46;;;;;;;;;;;19.40;90.30;;;;;;5028164;28;19917;-87
2023/09/13 07:14:12;;;;;;;;;;;19.40;90.40;;;;;;5011113;28;20357;-88
2023/09/13 07:16:37;;;;;;;;;;;19.50;90.40;;;;;;5028405;28;20286;-87
2023/09/13 07:19:03;;;;;;;;;;;19.50;89.90;;;;;;5017141;28;19999;-88
2023/09/13 07:21:28;;;;;;;;;;;19.60;89.80;;;;;;5031483;28;19921;-87
2023/09/13 07:23:53;;;;;;;;;;;19.50;89.60;;;;;;5013218;28;19913;-87
2023/09/13 07:26:19;;;;;;;;;;;19.60;89.30;;;;;;5011664;28;20456;-88
2023/09/13 07:28:44;;;;;;;;;;;19.60;89.30;;;;;;5012414;28;19913;-86
2023/09/13 07:31:10;;;;;;;;;;;19.70;89.10;;;;;;5011258;28;19936;-87
2023/09/13 07:33:35;;;;;;;;;;;19.60;89.20;;;;;;5011721;28;19967;-87
2023/09/13 07:36:01;;;;;;;;;;;19.60;89.00;;;;;;5010481;28;19970;-88
2023/09/13 07:38:27;;;;;;;;;;;19.50;89.00;;;;;;5041864;28;20385;-87
2023/09/13 07:40:52;;;;;;;;;;;19.50;89.20;;;;;;5013740;28;19917;-87
2023/09/13 07:43:18;;;;;;;;;;;19.50;89.60;;;;;;5030508;28;19925;-87
2023/09/13 07:45:45;;;;;;;;;;;19.60;89.70;;;;;;5010096;28;20004;-85
2023/09/13 07:48:10;;;;;;;;;;;19.70;89.30;;;;;;5030708;28;20100;-86
2023/09/13 07:50:42;;;;;;;;;;;19.70;88.70;;;;;;5010292;28;20024;-89
2023/09/13 07:53:08;;;;;;;;;;;19.60;88.30;;;;;;5011653;28;19919;-88
2023/09/13 07:55:34;;;;;;;;;;;19.70;88.40;;;;;;5038819;28;19916;-87
2023/09/13 07:57:59;;;;;;;;;;;19.70;88.70;;;;;;5024591;28;19919;-88
2023/09/13 08:00:25;;;;;;;;;;;19.70;89.00;;;;;;5019383;28;20641;-88
2023/09/13 08:02:50;;;;;;;;;;;19.70;89.00;;;;;;5034644;28;19972;-89
2023/09/13 08:05:16;;;;;;;;;;;19.80;88.80;;;;;;5015180;28;19913;-89
2023/09/13 08:07:42;;;;;;;;;;;19.80;88.90;;;;;;5021662;28;19913;-89
2023/09/13 08:10:08;;;;;;;;;;;19.90;88.80;;;;;;5010986;28;19960;-89
2023/09/13 08:12:33;;;;;;;;;;;20.00;88.70;;;;;;5016726;28;19952;-89
2023/09/13 08:14:58;;;;;;;;;;;20.00;88.50;;;;;;5012367;28;19929;-86
2023/09/13 08:17:24;;;;;;;;;;;20.10;88.10;;;;;;5032351;28;19917;-86
2023/09/13 08:19:49;;;;;;;;;;;20.30;87.90;;;;;;5013188;28;19914;-89
2023/09/13 08:22:15;;;;;;;;;;;20.30;87.80;;;;;;5031092;28;20099;-89
2023/09/13 08:24:41;;;;;;;;;;;20.30;87.80;;;;;;5012832;28;20418;-89
2023/09/13 08:27:06;;;;;;;;;;;20.30;87.70;;;;;;5018080;28;20393;-90
2023/09/13 08:29:33;;;;;;;;;;;20.20;88.00;;;;;;5011494;28;19913;-89
2023/09/13 08:31:58;;;;;;;;;;;20.20;87.40;;;;;;5044192;28;19913;-88
2023/09/13 08:34:24;;;;;;;;;;;20.10;87.70;;;;;;5035512;28;20398;-90
2023/09/13 08:36:50;;;;;;;;;;;20.10;87.10;;;;;;5015148;28;19910;-89
2023/09/13 08:39:15;;;;;;;;;;;20.00;86.60;;;;;;5041489;28;19937;-89
2023/09/13 08:41:49;;;;;;;;;;;20.00;86.60;;;;;;5031904;28;20007;-90
2023/09/13 08:44:18;;;;;;;;;;;20.00;87.30;;;;;;5021042;28;19919;-89
2023/09/13 08:46:45;;;;;;;;;;;20.10;87.20;;;;;;5013993;28;19921;-89
2023/09/13 08:49:16;;;;;;;;;;;20.10;87.10;;;;;;5011558;28;19990;-88
2023/09/13 08:51:42;;;;;;;;;;;20.20;86.70;;;;;;5012408;28;20401;-87
2023/09/13 08:54:09;;;;;;;;;;;20.20;86.90;;;;;;5022539;28;20297;-89
2023/09/13 08:56:35;;;;;;;;;;;20.20;87.00;;;;;;5029813;28;19920;-89
2023/09/13 08:59:01;;;;;;;;;;;20.20;86.90;;;;;;5036786;28;19992;-87
2023/09/13 09:01:27;;;;;;;;;;;20.30;87.20;;;;;;5018015;28;20024;-88
2023/09/13 09:03:52;;;;;;;;;;;20.40;86.90;;;;;;5025576;28;20043;-88
2023/09/13 09:06:19;;;;;;;;;;;20.50;86.80;;;;;;5030894;28;20106;-88
2023/09/13 09:08:47;;;;;;;;;;;20.60;85.60;;;;;;5020182;28;19912;-89
2023/09/13 09:11:13;;;;;;;;;;;20.60;85.20;;;;;;5039508;28;19982;-89
2023/09/13 09:13:40;;;;;;;;;;;20.70;85.60;;;;;;5028933;28;19916;-89
2023/09/13 09:16:06;;;;;;;;;;;20.80;85.40;;;;;;5021236;28;19975;-89
2023/09/13 09:18:32;;;;;;;;;;;20.80;84.70;;;;;;5015735;28;19924;-88
2023/09/13 09:20:59;;;;;;;;;;;20.80;86.10;;;;;;5019495;28;19916;-89
2023/09/13 09:23:26;;;;;;;;;;;20.80;85.70;;;;;;5023580;28;19921;-90
2023/09/13 09:25:52;;;;;;;;;;;20.70;86.10;;;;;;5028522;28;19917;-88
2023/09/13 09:28:17;;;;;;;;;;;20.60;85.70;;;;;;5034551;28;19921;-87
2023/09/13 09:30:44;;;;;;;;;;;20.50;86.10;;;;;;5042583;28;20007;-87
2023/09/13 09:33:09;;;;;;;;;;;20.50;86.30;;;;;;5021527;28;20413;-87
2023/09/13 09:35:36;;;;;;;;;;;20.50;86.40;;;;;;5054511;28;19893;-88
2023/09/13 09:38:01;;;;;;;;;;;20.60;86.10;;;;;;5053530;28;19967;-88
2023/09/13 09:40:27;;;;;;;;;;;20.60;85.90;;;;;;5072046;28;19901;-88
2023/09/13 09:42:56;;;;;;;;;;;20.60;85.30;;;;;;5027751;28;20353;-88
2023/09/13 09:45:23;;;;;;;;;;;20.60;84.90;;;;;;5028165;28;19949;-87
2023/09/13 09:47:51;;;;;;;;;;;20.60;85.20;;;;;;5038030;28;20007;-87
2023/09/13 09:50:17;;;;;;;;;;;20.50;85.40;;;;;;5025102;28;19986;-88
2023/09/13 09:52:48;;;;;;;;;;;20.60;85.80;;;;;;5043042;28;20564;-87
2023/09/13 09:55:15;;;;;;;;;;;20.60;85.10;;;;;;5030518;28;19917;-87
2023/09/13 09:57:47;;;;;;;;;;;20.60;85.10;;;;;;5027245;28;19960;-87
2023/09/13 10:00:14;;;;;;;;;;;20.80;85.30;;;;;;5026014;28;20004;-88
2023/09/13 10:02:39;;;;;;;;;;;20.90;84.50;;;;;;5045740;28;19982;-87
2023/09/13 10:05:05;;;;;;;;;;;21.00;83.80;;;;;;5023815;28;19968;-88
2023/09/13 10:07:40;;;;;;;;;;;21.00;83.80;;;;;;5020681;28;19924;-87
2023/09/13 10:10:08;;;;;;;;;;;21.00;83.60;;;;;;5030963;28;19999;-87
2023/09/13 10:12:42;;;;;;;;;;;20.90;83.70;;;;;;5019185;28;19912;-89
2023/09/13 10:15:08;;;;;;;;;;;20.90;83.70;;;;;;5032603;28;20428;-87
2023/09/13 10:17:34;;;;;;;;;;;20.80;84.00;;;;;;5020910;28;19917;-87
2023/09/13 10:19:59;;;;;;;;;;;20.80;84.20;;;;;;5016602;28;19952;-88
2023/09/13 10:22:30;;;;;;;;;;;20.90;83.10;;;;;;5040526;28;19925;-87
2023/09/13 10:24:57;;;;;;;;;;;20.90;83.20;;;;;;5032562;28;19951;-88
2023/09/13 10:27:24;;;;;;;;;;;20.70;84.40;;;;;;5025541;28;20012;-86
2023/09/13 10:29:57;;;;;;;;;;;20.10;84.70;;;;;;5028429;28;20381;-87
2023/09/13 10:32:26;;;;;;;;;;;19.40;86.70;;;;;;5041028;28;19908;-86
2023/09/13 10:34:58;;;;;;;;;;;18.80;87.90;;;;;;5028051;28;19917;-87
2023/09/13 10:37:30;;;;;;;;;;;18.60;89.30;;;;;;5046719;28;19927;-86
2023/09/13 10:39:59;;;;;;;;;;;18.30;89.80;;;;;;5020868;28;19921;-86
2023/09/13 10:42:25;;;;;;;;;;;18.00;88.90;;;;;;5028603;28;20015;-86
2023/09/13 10:44:51;;;;;;;;;;;17.60;89.90;;;;;;5024217;28;20004;-86
2023/09/13 10:47:17;;;;;;;;;;;17.60;90.40;;;;;;5025497;28;19909;-88
2023/09/13 10:49:42;;;;;;;;;;;17.70;90.20;;;;;;5020929;28;20326;-86
2023/09/13 10:52:08;;;;;;;;;;;17.70;90.30;;;;;;5039440;28;19919;-86
2023/09/13 10:54:34;;;;;;;;;;;17.90;90.90;;;;;;5027200;28;19916;-87
2023/09/13 10:57:01;;;;;;;;;;;18.10;90.10;;;;;;5019653;28;19914;-88
2023/09/13 10:59:26;;;;;;;;;;;18.10;90.10;;;;;;5020401;28;19917;-87
2023/09/13 11:01:52;;;;;;;;;;;18.10;89.00;;;;;;5033774;28;20012;-87
2023/09/13 11:04:23;;;;;;;;;;;18.00;88.90;;;;;;5026994;28;20354;-88
2023/09/13 11:06:50;;;;;;;;;;;18.00;89.10;;;;;;5019960;28;20389;-87
2023/09/13 11:09:24;;;;;;;;;;;17.90;87.80;;;;;;5037724;28;19909;-87
2023/09/13 11:11:53;;;;;;;;;;;17.70;89.10;;;;;;5017955;28;19913;-87
2023/09/13 11:14:26;;;;;;;;;;;17.80;88.80;;;;;;5029012;28;19916;-87
2023/09/13 11:16:52;;;;;;;;;;;17.70;88.60;;;;;;5016458;28;20013;-87
2023/09/13 11:19:17;;;;;;;;;;;17.70;88.20;;;;;;5039889;28;19936;-88
2023/09/13 11:21:47;;;;;;;;;;;17.70;89.20;;;;;;5040955;28;20032;-87
2023/09/13 11:24:12;;;;;;;;;;;17.80;89.40;;;;;;5031506;28;19913;-88
2023/09/13 11:26:43;;;;;;;;;;;17.90;89.40;;;;;;5030653;28;20393;-88
2023/09/13 11:29:22;;;;;;;;;;;18.00;89.00;;;;;;5025773;28;20536;-87
2023/09/13 11:32:01;;;;;;;;;;;18.00;88.60;;;;;;5017117;28;19917;-87
2023/09/13 11:34:26;;;;;;;;;;;18.00;89.40;;;;;;5036319;28;19921;-88
2023/09/13 11:36:59;;;;;;;;;;;18.00;87.30;;;;;;5032626;28;20011;-88
2023/09/13 11:39:25;;;;;;;;;;;17.70;87.40;;;;;;5019174;28;19917;-88
2023/09/13 11:41:51;;;;;;;;;;;17.60;87.10;;;;;;5025396;28;19913;-87
2023/09/13 11:44:19;;;;;;;;;;;17.50;88.30;;;;;;5021167;28;20382;-88
2023/09/13 11:46:47;;;;;;;;;;;17.50;88.40;;;;;;5022115;28;19920;-87
2023/09/13 11:49:18;;;;;;;;;;;17.60;87.80;;;;;;5027457;28;19916;-88
2023/09/13 11:51:46;;;;;;;;;;;17.50;87.80;;;;;;5043448;28;20397;-88
2023/09/13 11:54:15;;;;;;;;;;;17.50;88.30;;;;;;5023729;28;20393;-88
2023/09/13 11:56:43;;;;;;;;;;;17.60;87.70;;;;;;5026361;28;20370;-88
2023/09/13 11:59:09;;;;;;;;;;;17.50;87.60;;;;;;5022229;28;19915;-88
2023/09/13 12:01:41;;;;;;;;;;;17.60;87.40;;;;;;5021819;28;20472;-86
2023/09/13 12:04:08;;;;;;;;;;;17.60;87.90;;;;;;5034331;28;19916;-88
2023/09/13 12:06:43;;;;;;;;;;;17.60;87.20;;;;;;5037599;28;19913;-88
2023/09/13 12:09:15;;;;;;;;;;;17.80;87.10;;;;;;5040349;28;19919;-88
2023/09/13 12:11:42;;;;;;;;;;;18.00;85.70;;;;;;5018452;28;19936;-87
2023/09/13 12:14:11;;;;;;;;;;;18.10;86.40;;;;;;5042495;28;20424;-87
2023/09/13 12:16:40;;;;;;;;;;;18.10;85.60;;;;;;5020056;28;19920;-88
2023/09/13 12:19:06;;;;;;;;;;;18.00;85.80;;;;;;5035565;28;19913;-89
2023/09/13 12:21:32;;;;;;;;;;;17.90;84.20;;;;;;5023005;28;20375;-88
2023/09/13 12:23:57;;;;;;;;;;;17.90;85.20;;;;;;5042844;28;19948;-87
2023/09/13 12:26:25;;;;;;;;;;;17.90;83.80;;;;;;5023650;28;19916;-87
2023/09/13 12:28:52;;;;;;;;;;;18.10;83.90;;;;;;5031744;28;19932;-87
2023/09/13 12:31:18;;;;;;;;;;;18.20;84.70;;;;;;5017153;28;20016;-87
2023/09/13 12:33:44;;;;;;;;;;;18.30;83.40;;;;;;5041823;28;19979;-88
2023/09/13 12:36:10;;;;;;;;;;;18.20;84.90;;;;;;5045493;28;19948;-88
2023/09/13 12:38:41;;;;;;;;;;;18.20;85.70;;;;;;5030324;28;20014;-88
2023/09/13 12:41:07;;;;;;;;;;;18.30;84.70;;;;;;5015692;28;19956;-90
2023/09/13 12:43:35;;;;;;;;;;;18.20;84.30;;;;;;5021702;28;19960;-88
2023/09/13 12:46:01;;;;;;;;;;;18.30;84.20;;;;;;5019919;28;20000;-87
2023/09/13 12:48:27;;;;;;;;;;;18.30;85.20;;;;;;5018297;28;19976;-89
2023/09/13 12:50:53;;;;;;;;;;;18.60;85.70;;;;;;5039964;28;19921;-89
2023/09/13 12:53:18;;;;;;;;;;;18.60;83.90;;;;;;5022583;28;19944;-90
2023/09/13 12:55:44;;;;;;;;;;;18.60;84.50;;;;;;5019425;28;20377;-88
2023/09/13 12:58:10;;;;;;;;;;;18.70;85.20;;;;;;5042536;28;19924;-84
2023/09/13 13:00:47;;;;;;;;;;;18.70;83.60;;;;;;5032442;28;19944;-89
2023/09/13 13:03:13;;;;;;;;;;;18.90;82.50;;;;;;5033416;28;20008;-90
2023/09/13 13:05:39;;;;;;;;;;;18.90;82.60;;;;;;5021656;28;19913;-87
2023/09/13 13:08:06;;;;;;;;;;;18.80;80.60;;;;;;5015920;28;20393;-85
2023/09/13 13:10:31;;;;;;;;;;;18.80;82.00;;;;;;5017360;28;19913;-87
2023/09/13 13:12:56;;;;;;;;;;;18.80;82.50;;;;;;5049302;28;20349;-86
2023/09/13 13:15:28;;;;;;;;;;;18.70;82.10;;;;;;5020937;28;19924;-86
2023/09/13 13:17:54;;;;;;;;;;;18.70;82.10;;;;;;5021044;28;19917;-87
2023/09/13 13:20:19;;;;;;;;;;;18.70;83.30;;;;;;5022834;28;19913;-87
2023/09/13 13:22:45;;;;;;;;;;;18.70;82.00;;;;;;5041286;28;19949;-87
2023/09/13 13:25:10;;;;;;;;;;;18.80;79.60;;;;;;5018886;28;19921;-89
2023/09/13 13:27:42;;;;;;;;;;;18.70;80.60;;;;;;5023868;28;20478;-91
2023/09/13 13:30:11;;;;;;;;;;;18.60;78.30;;;;;;5019791;28;19914;-90
2023/09/13 13:32:38;;;;;;;;;;;18.50;78.90;;;;;;5046723;28;19916;-92
2023/09/13 13:35:04;;;;;;;;;;;18.60;77.40;;;;;;5054238;28;20462;-92
2023/09/13 13:37:32;;;;;;;;;;;18.60;78.20;;;;;;5032947;28;19948;-92
2023/09/13 13:39:58;;;;;;;;;;;18.70;77.60;;;;;;5017714;28;19921;-89
2023/09/13 13:42:33;;;;;;;;;;;18.70;79.10;;;;;;5023047;28;20302;-92
2023/09/13 13:45:06;;;;;;;;;;;18.70;79.50;;;;;;5052530;28;19980;-91
2023/09/13 13:47:38;;;;;;;;;;;18.60;81.50;;;;;;5026833;28;19909;-92
2023/09/13 13:50:37;;;;;;;;;;;18.70;78.70;;;;;;5034665;28;19913;-91
2023/09/13 13:53:08;;;;;;;;;;;18.70;79.80;;;;;;5025552;28;19971;-92
2023/09/13 13:55:34;;;;;;;;;;;18.60;78.60;;;;;;5022075;28;19913;-92
2023/09/13 13:58:02;;;;;;;;;;;18.60;77.90;;;;;;5048998;28;20418;-91
2023/09/13 14:00:30;;;;;;;;;;;18.60;79.60;;;;;;5037673;28;19920;-93
2023/09/13 14:02:56;;;;;;;;;;;18.50;80.70;;;;;;5050639;28;19909;-92
2023/09/13 14:05:21;;;;;;;;;;;18.60;77.90;;;;;;5048073;28;19923;-92
2023/09/13 14:07:47;;;;;;;;;;;18.50;79.70;;;;;;5037423;28;20008;-92
2023/09/13 14:10:15;;;;;;;;;;;18.50;78.10;;;;;;5038201;28;19917;-92
2023/09/13 14:12:41;;;;;;;;;;;18.50;79.20;;;;;;5029284;28;20167;-92